Time;durP1;ratioP1;P1;durP2;ratioP2;P2;SDS_P1;SDS_P2;PMS_P1;PMS_P2;Temp;Humidity;BMP_temperature;BMP_pressure;BME280_temperature;BME280_humidity;BME280_pressure;Samples;Min_cycle;Max_cycle;Signal;HPM_P1;HPM_P2
2023/07/06 00:02:03;;;;;;;;;;;;;;;18.43;53.08;98428.09;7379727;19;19954;-73
2023/07/06 00:04:30;;;;;;;;;;;;;;;18.42;52.21;98429.97;7371793;19;19942;-73
2023/07/06 00:06:57;;;;;;;;;;;;;;;18.37;51.86;98421.72;7371966;19;20256;-73
2023/07/06 00:09:23;;;;;;;;;;;;;;;18.26;52.86;98424.19;7375830;19;22574;-73
2023/07/06 00:11:50;;;;;;;;;;;;;;;18.21;53.71;98428.28;7375444;19;19911;-73
2023/07/06 00:14:17;;;;;;;;;;;;;;;18.27;54.10;98423.16;7367687;19;20350;-73
2023/07/06 00:16:47;;;;;;;;;;;;;;;18.25;54.82;98427.91;7371862;19;19970;-73
2023/07/06 00:19:18;;;;;;;;;;;;;;;18.27;54.96;98420.47;7374436;19;19929;-73
2023/07/06 00:21:45;;;;;;;;;;;;;;;18.30;54.91;98428.94;7372426;19;19926;-73
2023/07/06 00:24:11;;;;;;;;;;;;;;;18.27;54.03;98432.00;7373028;19;19918;-73
2023/07/06 00:26:38;;;;;;;;;;;;;;;18.23;53.64;98433.44;7375041;19;19914;-73
2023/07/06 00:29:05;;;;;;;;;;;;;;;17.77;55.43;98423.41;7372841;19;19930;-72
2023/07/06 00:31:32;;;;;;;;;;;;;;;17.52;55.90;98423.13;7371705;19;19974;-72
2023/07/06 00:34:03;;;;;;;;;;;;;;;17.78;55.94;98428.56;7372912;19;19918;-73
2023/07/06 00:36:30;;;;;;;;;;;;;;;17.73;55.18;98424.84;7372755;19;19926;-73
2023/07/06 00:38:57;;;;;;;;;;;;;;;17.73;55.91;98425.66;7369989;19;20462;-73
2023/07/06 00:41:24;;;;;;;;;;;;;;;17.62;56.89;98428.09;7371083;19;19918;-73
2023/07/06 00:43:52;;;;;;;;;;;;;;;17.82;55.85;98425.50;7374246;19;19923;-73
2023/07/06 00:46:19;;;;;;;;;;;;;;;17.70;55.49;98431.41;7373192;19;19950;-73
2023/07/06 00:48:46;;;;;;;;;;;;;;;17.52;55.96;98428.47;7371154;19;19918;-73
2023/07/06 00:51:16;;;;;;;;;;;;;;;17.43;56.76;98438.50;7377686;19;20237;-73
2023/07/06 00:53:44;;;;;;;;;;;;;;;17.54;56.63;98429.91;7374807;19;21129;-73
2023/07/06 00:56:13;;;;;;;;;;;;;;;17.64;56.08;98432.22;7377156;19;19922;-72
2023/07/06 00:58:40;;;;;;;;;;;;;;;17.48;56.97;98421.84;7374705;19;19982;-73
2023/07/06 01:01:07;;;;;;;;;;;;;;;17.25;57.40;98433.69;7380522;19;19918;-73
2023/07/06 01:03:43;;;;;;;;;;;;;;;17.42;57.88;98434.16;7378952;19;19927;-73
2023/07/06 01:06:19;;;;;;;;;;;;;;;17.42;58.25;98431.50;7382615;19;19919;-73
2023/07/06 01:08:49;;;;;;;;;;;;;;;17.52;57.53;98429.28;7378141;19;20272;-73
2023/07/06 01:11:20;;;;;;;;;;;;;;;17.62;57.64;98425.44;7373317;19;21331;-73
2023/07/06 01:13:57;;;;;;;;;;;;;;;17.78;57.48;98428.56;7369419;19;19930;-73
2023/07/06 01:16:25;;;;;;;;;;;;;;;17.67;57.51;98420.31;7379375;19;19926;-73
2023/07/06 01:18:55;;;;;;;;;;;;;;;17.42;58.02;98425.31;7379644;19;19919;-73
2023/07/06 01:21:41;;;;;;;;;;;;;;;17.42;58.26;98426.16;7380435;19;19922;-72
2023/07/06 01:24:18;;;;;;;;;;;;;;;17.43;58.87;98424.28;7380666;19;19923;-73
2023/07/06 01:27:03;;;;;;;;;;;;;;;17.63;56.96;98422.53;7380174;19;19964;-72
2023/07/06 01:29:30;;;;;;;;;;;;;;;17.52;57.07;98425.78;7377122;19;19926;-73
2023/07/06 01:32:04;;;;;;;;;;;;;;;17.40;57.10;98422.00;7377664;19;19922;-73
2023/07/06 01:34:47;;;;;;;;;;;;;;;17.18;58.15;98419.44;7379193;19;20280;-73
2023/07/06 01:37:16;;;;;;;;;;;;;;;16.99;58.83;98418.31;7379072;19;19978;-73
2023/07/06 01:39:43;;;;;;;;;;;;;;;16.81;59.96;98417.97;7379588;19;19927;-73
2023/07/06 01:42:11;;;;;;;;;;;;;;;16.62;60.80;98414.91;7380417;19;19922;-73
2023/07/06 01:44:40;;;;;;;;;;;;;;;16.64;60.51;98418.22;7377814;19;20398;-72
2023/07/06 01:47:08;;;;;;;;;;;;;;;16.47;61.44;98414.19;7372852;19;19982;-74
2023/07/06 01:49:35;;;;;;;;;;;;;;;16.62;60.90;98416.78;7377225;19;20467;-73
2023/07/06 01:52:10;;;;;;;;;;;;;;;16.75;60.30;98408.84;7377266;19;20633;-73
2023/07/06 01:54:39;;;;;;;;;;;;;;;16.59;60.07;98417.16;7377576;19;19942;-73
2023/07/06 01:57:07;;;;;;;;;;;;;;;16.68;59.24;98426.66;7379005;19;19922;-73
2023/07/06 01:59:35;;;;;;;;;;;;;;;16.37;60.57;98419.84;7373815;19;19927;-73
2023/07/06 02:02:02;;;;;;;;;;;;;;;16.44;59.89;98417.22;7375531;19;19919;-72
2023/07/06 02:04:30;;;;;;;;;;;;;;;16.44;60.20;98425.25;7374324;19;19942;-72
2023/07/06 02:06:59;;;;;;;;;;;;;;;16.46;59.83;98421.38;7377744;19;20336;-72
2023/07/06 02:09:26;;;;;;;;;;;;;;;16.43;59.79;98424.44;7378631;19;19923;-72
2023/07/06 02:11:53;;;;;;;;;;;;;;;16.22;61.56;98417.25;7378003;19;19939;-72
2023/07/06 02:14:21;;;;;;;;;;;;;;;16.03;62.13;98401.84;7377037;19;20213;-72
2023/07/06 02:16:54;;;;;;;;;;;;;;;16.22;61.19;98401.22;7377576;19;19929;-72
2023/07/06 02:19:21;;;;;;;;;;;;;;;16.20;60.46;98405.94;7377605;19;20002;-72
2023/07/06 02:21:48;;;;;;;;;;;;;;;16.30;60.90;98412.78;7373627;19;20264;-72
2023/07/06 02:24:15;;;;;;;;;;;;;;;16.24;61.86;98412.56;7361164;19;19921;-72
2023/07/06 02:26:42;;;;;;;;;;;;;;;16.38;60.13;98424.16;7368971;19;20239;-73
2023/07/06 02:29:08;;;;;;;;;;;;;;;16.22;60.65;98424.44;7376170;19;19930;-72
2023/07/06 02:31:35;;;;;;;;;;;;;;;16.24;60.83;98425.91;7377160;19;19922;-72
2023/07/06 02:34:03;;;;;;;;;;;;;;;16.32;60.91;98424.91;7374191;19;19943;-72
2023/07/06 02:36:29;;;;;;;;;;;;;;;16.34;60.21;98430.06;7371611;19;20324;-73
2023/07/06 02:38:57;;;;;;;;;;;;;;;16.16;60.68;98426.00;7378242;19;19948;-72
2023/07/06 02:41:23;;;;;;;;;;;;;;;16.15;61.02;98426.19;7374428;19;19928;-72
2023/07/06 02:43:50;;;;;;;;;;;;;;;15.98;61.57;98426.44;7372715;19;19990;-72
2023/07/06 02:46:19;;;;;;;;;;;;;;;15.62;64.21;98429.06;7378402;19;19946;-72
2023/07/06 02:48:47;;;;;;;;;;;;;;;15.52;64.14;98421.38;7374676;19;20234;-72
2023/07/06 02:51:15;;;;;;;;;;;;;;;15.88;62.68;98427.78;7378320;19;19923;-72
2023/07/06 02:53:42;;;;;;;;;;;;;;;15.64;64.04;98424.41;7372590;19;20376;-72
2023/07/06 02:56:09;;;;;;;;;;;;;;;15.53;65.38;98420.38;7376983;19;20316;-73
2023/07/06 02:58:36;;;;;;;;;;;;;;;15.33;65.13;98420.09;7372382;19;19927;-72
2023/07/06 03:01:04;;;;;;;;;;;;;;;15.33;65.13;98417.44;7376546;19;19935;-72
2023/07/06 03:03:30;;;;;;;;;;;;;;;15.23;65.44;98416.88;7369490;19;19919;-73
2023/07/06 03:06:01;;;;;;;;;;;;;;;15.30;65.32;98424.97;7374061;19;19911;-73
2023/07/06 03:08:29;;;;;;;;;;;;;;;15.30;64.83;98424.97;7374128;19;19971;-72
2023/07/06 03:10:55;;;;;;;;;;;;;;;15.59;63.61;98424.94;7372657;19;19918;-73
2023/07/06 03:13:28;;;;;;;;;;;;;;;15.57;63.55;98418.16;7376907;19;20363;-73
2023/07/06 03:15:56;;;;;;;;;;;;;;;15.44;64.57;98421.47;7371313;19;19931;-73
2023/07/06 03:18:24;;;;;;;;;;;;;;;15.52;63.11;98420.53;7374802;19;19923;-73
2023/07/06 03:20:51;;;;;;;;;;;;;;;15.42;63.48;98404.00;7375003;19;19914;-73
2023/07/06 03:23:18;;;;;;;;;;;;;;;15.46;63.73;98408.78;7377096;19;19919;-73
2023/07/06 03:25:49;;;;;;;;;;;;;;;15.51;63.83;98413.56;7370379;19;19929;-72
2023/07/06 03:28:16;;;;;;;;;;;;;;;15.50;64.87;98418.03;7373580;19;19919;-73
2023/07/06 03:30:43;;;;;;;;;;;;;;;15.61;64.47;98414.06;7376013;19;19982;-73
2023/07/06 03:33:10;;;;;;;;;;;;;;;15.79;63.80;98417.19;7375877;19;20371;-72
2023/07/06 03:35:39;;;;;;;;;;;;;;;15.86;63.21;98421.78;7371280;19;21112;-73
2023/07/06 03:38:06;;;;;;;;;;;;;;;15.77;63.38;98424.56;7374948;19;19923;-73
2023/07/06 03:40:33;;;;;;;;;;;;;;;15.64;63.88;98424.41;7373536;19;19921;-73
2023/07/06 03:43:01;;;;;;;;;;;;;;;15.74;63.85;98426.78;7371065;19;19922;-73
2023/07/06 03:45:30;;;;;;;;;;;;;;;15.73;64.12;98425.94;7371259;19;20321;-73
2023/07/06 03:47:57;;;;;;;;;;;;;;;15.74;63.81;98424.09;7377271;19;19927;-73
2023/07/06 03:50:24;;;;;;;;;;;;;;;15.76;63.93;98427.41;7375425;19;19927;-73
2023/07/06 03:52:51;;;;;;;;;;;;;;;15.80;64.02;98423.38;7374327;19;21113;-73
2023/07/06 03:55:19;;;;;;;;;;;;;;;15.77;63.93;98423.72;7374577;19;19915;-73
2023/07/06 03:57:46;;;;;;;;;;;;;;;15.82;63.60;98420.50;7373006;19;19923;-72
2023/07/06 04:00:29;;;;;;;;;;;;;;;15.54;64.22;98418.53;7373917;19;20304;-73
2023/07/06 04:02:57;;;;;;;;;;;;;;;15.70;64.14;98423.66;7372023;19;19919;-73
2023/07/06 04:05:24;;;;;;;;;;;;;;;15.73;64.41;98417.13;7374559;19;19922;-73
2023/07/06 04:07:54;;;;;;;;;;;;;;;15.82;64.26;98412.50;7372660;19;19919;-73
2023/07/06 04:10:21;;;;;;;;;;;;;;;15.79;64.22;98417.19;7374553;19;19915;-73
2023/07/06 04:12:48;;;;;;;;;;;;;;;15.75;64.19;98415.94;7371454;19;20019;-72
2023/07/06 04:15:17;;;;;;;;;;;;;;;15.89;63.20;98410.75;7373545;19;20367;-72
2023/07/06 04:17:44;;;;;;;;;;;;;;;15.97;62.85;98418.63;7365266;19;20407;-73
2023/07/06 04:20:18;;;;;;;;;;;;;;;15.92;62.90;98421.84;7372586;19;19926;-73
2023/07/06 04:22:46;;;;;;;;;;;;;;;15.88;62.97;98419.78;7372773;19;20351;-73
2023/07/06 04:25:15;;;;;;;;;;;;;;;15.78;63.48;98426.22;7369749;19;19937;-73
2023/07/06 04:27:42;;;;;;;;;;;;;;;15.80;64.25;98426.03;7370991;19;19930;-72
2023/07/06 04:30:10;;;;;;;;;;;;;;;15.86;64.02;98437.81;7376735;19;20252;-72
2023/07/06 04:32:36;;;;;;;;;;;;;;;15.95;62.91;98426.81;7370760;19;19926;-72
2023/07/06 04:35:03;;;;;;;;;;;;;;;15.94;63.24;98429.69;7369475;19;19918;-71
2023/07/06 04:37:31;;;;;;;;;;;;;;;16.00;62.49;98435.06;7373674;19;19929;-71
2023/07/06 04:39:58;;;;;;;;;;;;;;;15.99;62.55;98427.28;7372571;19;19959;-71
2023/07/06 04:42:27;;;;;;;;;;;;;;;15.98;62.94;98436.28;7370003;19;19922;-71
2023/07/06 04:44:54;;;;;;;;;;;;;;;15.92;62.72;98437.03;7373529;19;19926;-71
2023/07/06 04:47:23;;;;;;;;;;;;;;;15.91;62.99;98432.72;7371662;19;19919;-71
2023/07/06 04:49:50;;;;;;;;;;;;;;;15.82;63.78;98436.50;7368117;19;19922;-70
2023/07/06 04:52:16;;;;;;;;;;;;;;;15.97;63.77;98443.47;7369700;19;19926;-71
2023/07/06 04:54:43;;;;;;;;;;;;;;;16.14;62.79;98441.41;7372135;19;19910;-71
2023/07/06 04:57:12;;;;;;;;;;;;;;;16.23;63.46;98442.91;7374409;19;19929;-71
2023/07/06 04:59:40;;;;;;;;;;;;;;;16.22;63.17;98446.63;7373208;19;19930;-71
2023/07/06 05:02:07;;;;;;;;;;;;;;;16.66;61.79;98442.88;7374211;19;19927;-71
2023/07/06 05:04:35;;;;;;;;;;;;;;;16.81;61.51;98450.03;7369234;19;19930;-71
2023/07/06 05:07:01;;;;;;;;;;;;;;;16.96;59.83;98449.94;7369852;19;19954;-71
2023/07/06 05:09:28;;;;;;;;;;;;;;;16.93;58.79;98444.97;7365927;19;19918;-71
2023/07/06 05:11:56;;;;;;;;;;;;;;;17.00;60.41;98452.00;7367306;19;19926;-71
2023/07/06 05:14:23;;;;;;;;;;;;;;;17.16;58.84;98460.75;7373278;19;19923;-71
2023/07/06 05:16:50;;;;;;;;;;;;;;;17.16;59.55;98456.22;7370668;19;19929;-71
2023/07/06 05:19:17;;;;;;;;;;;;;;;16.89;60.36;98466.75;7373816;19;19949;-71
2023/07/06 05:21:44;;;;;;;;;;;;;;;17.24;59.56;98463.28;7371232;19;19929;-71
2023/07/06 05:24:11;;;;;;;;;;;;;;;17.57;58.39;98462.66;7364439;19;20290;-71
2023/07/06 05:26:38;;;;;;;;;;;;;;;17.72;58.46;98460.63;7367485;19;19917;-71
2023/07/06 05:29:05;;;;;;;;;;;;;;;17.80;58.31;98455.16;7372326;19;19918;-71
2023/07/06 05:31:31;;;;;;;;;;;;;;;17.90;57.32;98455.59;7371108;19;20244;-71
2023/07/06 05:33:58;;;;;;;;;;;;;;;17.95;56.47;98455.81;7370827;19;20015;-71
2023/07/06 05:36:25;;;;;;;;;;;;;;;18.06;57.43;98454.44;7372028;19;19919;-71
2023/07/06 05:38:51;;;;;;;;;;;;;;;18.16;57.30;98467.41;7373869;19;19990;-71
2023/07/06 05:41:18;;;;;;;;;;;;;;;18.35;56.14;98463.97;7370526;19;19928;-71
2023/07/06 05:43:45;;;;;;;;;;;;;;;18.53;56.34;98470.56;7376021;19;19919;-71
2023/07/06 05:46:11;;;;;;;;;;;;;;;18.53;56.15;98473.25;7378148;19;19922;-71
2023/07/06 05:48:38;;;;;;;;;;;;;;;18.64;55.38;98468.13;7377684;19;19926;-71
2023/07/06 05:51:05;;;;;;;;;;;;;;;18.75;54.43;98477.44;7381703;19;20660;-71
2023/07/06 05:53:32;;;;;;;;;;;;;;;18.82;53.93;98478.25;7380336;19;19931;-70
2023/07/06 05:55:59;;;;;;;;;;;;;;;18.98;54.19;98470.81;7377952;19;19922;-71
2023/07/06 05:58:26;;;;;;;;;;;;;;;19.15;52.89;98482.78;7372206;19;19915;-71
2023/07/06 06:00:53;;;;;;;;;;;;;;;19.17;52.67;98490.59;7374978;19;19970;-71
2023/07/06 06:03:19;;;;;;;;;;;;;;;19.23;53.53;98485.25;7382304;19;19982;-71
2023/07/06 06:05:46;;;;;;;;;;;;;;;19.33;53.70;98490.19;7380486;19;19922;-71
2023/07/06 06:08:13;;;;;;;;;;;;;;;19.53;50.84;98488.25;7375816;19;19910;-71
2023/07/06 06:10:40;;;;;;;;;;;;;;;19.62;51.14;98493.44;7379271;19;19927;-71
2023/07/06 06:13:07;;;;;;;;;;;;;;;19.79;49.53;98493.81;7377838;19;19933;-71
2023/07/06 06:15:33;;;;;;;;;;;;;;;20.02;50.76;98485.25;7373998;19;19921;-71
2023/07/06 06:18:02;;;;;;;;;;;;;;;20.20;48.36;98489.91;7376579;19;19929;-70
2023/07/06 06:20:29;;;;;;;;;;;;;;;20.31;49.64;98490.03;7380188;19;19939;-71
2023/07/06 06:22:55;;;;;;;;;;;;;;;20.39;49.90;98487.09;7376230;19;19992;-70
2023/07/06 06:25:22;;;;;;;;;;;;;;;20.56;50.66;98486.59;7379127;19;19926;-71
2023/07/06 06:27:48;;;;;;;;;;;;;;;20.73;48.98;98493.09;7376906;19;19918;-71
2023/07/06 06:30:15;;;;;;;;;;;;;;;20.89;48.09;98489.06;7373256;19;19930;-71
2023/07/06 06:32:42;;;;;;;;;;;;;;;21.02;47.88;98491.63;7376759;19;19999;-71
2023/07/06 06:35:22;;;;;;;;;;;;;;;20.90;49.95;98490.69;7376829;19;19951;-71
2023/07/06 06:37:48;;;;;;;;;;;;;;;21.32;48.22;98490.13;7376177;19;20362;-71
2023/07/06 06:40:15;;;;;;;;;;;;;;;21.50;47.07;98486.66;7377759;19;19926;-71
2023/07/06 06:42:42;;;;;;;;;;;;;;;21.54;46.31;98485.16;7377464;19;20012;-71
2023/07/06 06:45:09;;;;;;;;;;;;;;;21.58;48.52;98483.66;7377173;19;19914;-71
2023/07/06 06:47:36;;;;;;;;;;;;;;;21.77;44.14;98479.91;7373792;19;20343;-71
2023/07/06 06:50:03;;;;;;;;;;;;;;;21.83;42.95;98484.41;7378843;19;19918;-71
2023/07/06 06:52:32;;;;;;;;;;;;;;;21.75;42.36;98486.56;7380647;19;19953;-72
2023/07/06 06:54:59;;;;;;;;;;;;;;;21.57;42.39;98484.72;7377590;19;19935;-71
2023/07/06 06:57:25;;;;;;;;;;;;;;;21.45;44.26;98476.56;7379392;19;19923;-73
2023/07/06 06:59:53;;;;;;;;;;;;;;;21.82;41.34;98481.94;7376921;19;19922;-71
2023/07/06 07:02:22;;;;;;;;;;;;;;;21.78;43.71;98475.38;7376183;19;19923;-71
2023/07/06 07:04:49;;;;;;;;;;;;;;;22.06;43.40;98477.50;7370205;19;19923;-71
2023/07/06 07:07:16;;;;;;;;;;;;;;;21.99;41.79;98474.91;7378608;19;19914;-72
2023/07/06 07:09:45;;;;;;;;;;;;;;;22.10;43.63;98486.78;7371032;19;19978;-70
2023/07/06 07:12:12;;;;;;;;;;;;;;;22.17;40.99;98482.13;7376053;19;19950;-71
2023/07/06 07:14:38;;;;;;;;;;;;;;;22.17;44.24;98474.03;7375436;19;20273;-71
2023/07/06 07:17:07;;;;;;;;;;;;;;;22.35;41.15;98479.41;7374997;19;19923;-71
2023/07/06 07:19:34;;;;;;;;;;;;;;;22.46;40.18;98477.81;7371123;19;19926;-70
2023/07/06 07:22:00;;;;;;;;;;;;;;;22.45;40.12;98484.22;7367435;19;19929;-71
2023/07/06 07:24:29;;;;;;;;;;;;;;;22.54;42.52;98484.75;7375648;19;19934;-71
2023/07/06 07:26:57;;;;;;;;;;;;;;;22.57;43.54;98474.31;7372927;19;19919;-71
2023/07/06 07:29:23;;;;;;;;;;;;;;;22.56;41.82;98477.22;7373450;19;20345;-70
2023/07/06 07:31:50;;;;;;;;;;;;;;;22.73;42.51;98477.41;7372633;19;19951;-70
2023/07/06 07:34:17;;;;;;;;;;;;;;;22.75;42.27;98475.31;7373988;19;19926;-70
2023/07/06 07:36:44;;;;;;;;;;;;;;;22.91;41.75;98474.63;7370880;19;19919;-70
2023/07/06 07:39:11;;;;;;;;;;;;;;;23.04;43.76;98472.75;7373871;19;19929;-70
2023/07/06 07:41:38;;;;;;;;;;;;;;;23.23;40.94;98475.13;7375526;19;19933;-70
2023/07/06 07:44:04;;;;;;;;;;;;;;;23.20;41.05;98475.59;7378618;19;20451;-70
2023/07/06 07:46:31;;;;;;;;;;;;;;;23.09;40.62;98476.44;7376427;19;19997;-70
2023/07/06 07:49:01;;;;;;;;;;;;;;;23.50;38.28;98471.94;7375900;19;19926;-68
2023/07/06 07:51:28;;;;;;;;;;;;;;;23.59;40.52;98473.22;7370816;19;19922;-70
2023/07/06 07:53:55;;;;;;;;;;;;;;;23.82;40.18;98474.25;7361806;19;19923;-71
2023/07/06 07:56:22;;;;;;;;;;;;;;;23.96;38.19;98470.22;7370032;19;19917;-71
2023/07/06 07:58:49;;;;;;;;;;;;;;;23.81;37.59;98478.00;7374784;19;19915;-70
2023/07/06 08:01:17;;;;;;;;;;;;;;;23.97;38.93;98469.16;7375391;19;19925;-71
2023/07/06 08:03:43;;;;;;;;;;;;;;;24.03;39.05;98470.06;7373811;19;19929;-70
2023/07/06 08:06:11;;;;;;;;;;;;;;;24.33;37.78;98477.94;7375409;19;19923;-71
2023/07/06 08:08:38;;;;;;;;;;;;;;;24.43;37.98;98475.41;7372608;19;19930;-70
2023/07/06 08:11:06;;;;;;;;;;;;;;;24.61;38.88;98474.41;7369426;19;19923;-70
2023/07/06 08:13:33;;;;;;;;;;;;;;;24.73;36.39;98466.22;7374071;19;19918;-71
2023/07/06 08:16:00;;;;;;;;;;;;;;;24.67;37.24;98475.31;7370893;19;19914;-67
2023/07/06 08:18:28;;;;;;;;;;;;;;;24.74;37.32;98468.69;7374080;19;19927;-70
2023/07/06 08:20:55;;;;;;;;;;;;;;;24.90;36.30;98469.75;7371179;19;19933;-71
2023/07/06 08:23:47;;;;;;;;;;;;;;;24.84;35.47;98470.75;7372455;19;19961;-70
2023/07/06 08:26:14;;;;;;;;;;;;;;;24.90;37.88;98472.44;7372537;19;19948;-70
2023/07/06 08:28:41;;;;;;;;;;;;;;;25.07;36.78;98471.66;7367418;19;20509;-70
2023/07/06 08:31:12;;;;;;;;;;;;;;;25.33;37.05;98468.28;7374266;19;19942;-68
2023/07/06 08:33:38;;;;;;;;;;;;;;;25.43;34.62;98473.00;7376275;19;19930;-70
2023/07/06 08:36:06;;;;;;;;;;;;;;;25.43;36.40;98475.69;7372444;19;19923;-70
2023/07/06 08:38:33;;;;;;;;;;;;;;;25.40;36.16;98474.31;7374967;19;19926;-70
2023/07/06 08:41:03;;;;;;;;;;;;;;;25.28;33.05;98473.63;7373358;19;19929;-70
2023/07/06 08:43:30;;;;;;;;;;;;;;;25.09;34.04;98472.19;7370238;19;19918;-70
2023/07/06 08:46:02;;;;;;;;;;;;;;;25.12;34.59;98469.00;7370577;19;19914;-70
2023/07/06 08:48:30;;;;;;;;;;;;;;;25.19;33.13;98465.06;7373816;19;19922;-70
2023/07/06 08:51:01;;;;;;;;;;;;;;;25.47;34.55;98466.03;7371742;19;19930;-70
2023/07/06 08:53:29;;;;;;;;;;;;;;;25.72;35.62;98465.50;7375144;19;20260;-70
2023/07/06 08:55:56;;;;;;;;;;;;;;;25.53;34.02;98464.19;7374117;19;20551;-70
2023/07/06 08:58:24;;;;;;;;;;;;;;;25.68;33.31;98458.97;7373282;19;19910;-68
2023/07/06 09:00:52;;;;;;;;;;;;;;;26.16;31.26;98454.69;7369397;19;20252;-70
2023/07/06 09:03:19;;;;;;;;;;;;;;;25.79;31.02;98454.50;7373801;19;19926;-70
2023/07/06 09:05:46;;;;;;;;;;;;;;;26.15;31.69;98444.09;7370513;19;20018;-69
2023/07/06 09:08:15;;;;;;;;;;;;;;;26.35;32.25;98449.72;7366304;19;19918;-71
2023/07/06 09:10:42;;;;;;;;;;;;;;;26.48;29.93;98449.28;7370953;19;19919;-70
2023/07/06 09:13:22;;;;;;;;;;;;;;;26.71;32.26;98450.88;7380937;19;19923;-70
2023/07/06 09:15:56;;;;;;;;;;;;;;;26.83;32.98;98445.31;7377168;19;20536;-70
2023/07/06 09:18:23;;;;;;;;;;;;;;;26.99;32.18;98446.22;7378258;19;19982;-70
2023/07/06 09:20:50;;;;;;;;;;;;;;;27.23;31.32;98443.16;7377218;19;19929;-70
2023/07/06 09:23:17;;;;;;;;;;;;;;;27.37;31.00;98444.31;7381496;19;20665;-70
2023/07/06 09:25:45;;;;;;;;;;;;;;;27.36;29.53;98442.69;7378040;19;19929;-70
2023/07/06 09:28:14;;;;;;;;;;;;;;;27.53;31.95;98442.50;7376754;19;19931;-69
2023/07/06 09:30:41;;;;;;;;;;;;;;;27.66;30.39;98433.03;7378034;19;19922;-69
2023/07/06 09:33:14;;;;;;;;;;;;;;;27.82;27.17;98433.94;7377215;19;19915;-69
2023/07/06 09:35:41;;;;;;;;;;;;;;;28.01;29.23;98435.91;7372404;19;20660;-69
2023/07/06 09:38:14;;;;;;;;;;;;;;;28.34;28.44;98436.53;7380270;19;19943;-70
2023/07/06 09:40:46;;;;;;;;;;;;;;;27.87;28.41;98434.78;7382127;19;20034;-71
2023/07/06 09:43:19;;;;;;;;;;;;;;;28.01;29.86;98429.66;7382345;19;19919;-69
2023/07/06 09:45:45;;;;;;;;;;;;;;;28.22;28.74;98439.47;7378848;19;19938;-69
2023/07/06 09:48:31;;;;;;;;;;;;;;;28.33;27.75;98447.66;7376068;19;19915;-69
2023/07/06 09:51:00;;;;;;;;;;;;;;;28.13;27.54;98438.38;7370028;19;19922;-69
2023/07/06 09:53:29;;;;;;;;;;;;;;;28.42;28.56;98438.72;7379562;19;19994;-70
2023/07/06 09:55:56;;;;;;;;;;;;;;;28.71;27.93;98442.84;7378910;19;19922;-70
2023/07/06 09:58:24;;;;;;;;;;;;;;;28.84;25.57;98443.09;7381222;19;20357;-69
2023/07/06 10:00:52;;;;;;;;;;;;;;;29.20;26.48;98445.00;7378515;19;19918;-69
2023/07/06 10:03:52;;;;;;;;;;;;;;;29.04;25.14;98441.44;7380241;19;20260;-70
2023/07/06 10:06:53;;;;;;;;;;;;;;;28.81;27.25;98440.13;7377852;19;19925;-69
2023/07/06 10:09:25;;;;;;;;;;;;;;;28.57;27.05;98437.09;7375944;19;20281;-69
2023/07/06 10:11:55;;;;;;;;;;;;;;;28.76;27.02;98440.13;7375995;19;20743;-69
2023/07/06 10:14:26;;;;;;;;;;;;;;;28.46;26.78;98441.72;7380312;19;19921;-69
2023/07/06 10:16:53;;;;;;;;;;;;;;;27.55;28.00;98448.50;7377897;19;21240;-70
2023/07/06 10:19:26;;;;;;;;;;;;;;;27.31;27.36;98448.91;7382208;19;19915;-68
2023/07/06 10:21:57;;;;;;;;;;;;;;;27.62;29.20;98437.34;7384987;19;20644;-69
2023/07/06 10:24:32;;;;;;;;;;;;;;;27.77;28.18;98440.97;7378810;19;19923;-72
2023/07/06 10:27:00;;;;;;;;;;;;;;;28.12;27.64;98434.06;7377290;19;20269;-69
2023/07/06 10:29:29;;;;;;;;;;;;;;;28.35;26.93;98440.06;7378950;19;20352;-70
2023/07/06 10:31:57;;;;;;;;;;;;;;;28.42;28.60;98440.63;7375857;19;19923;-69
2023/07/06 10:34:32;;;;;;;;;;;;;;;27.86;25.52;98444.03;7378967;19;19918;-69
2023/07/06 10:36:59;;;;;;;;;;;;;;;27.78;29.81;98442.63;7376569;19;19922;-69
2023/07/06 10:39:29;;;;;;;;;;;;;;;28.29;27.49;98439.25;7381137;19;20210;-69
2023/07/06 10:42:00;;;;;;;;;;;;;;;28.71;27.06;98437.41;7371286;19;20006;-69
2023/07/06 10:44:44;;;;;;;;;;;;;;;28.66;25.86;98440.94;7376751;19;19922;-70
2023/07/06 10:47:31;;;;;;;;;;;;;;;28.42;27.60;98438.72;7378031;19;19915;-69
2023/07/06 10:50:02;;;;;;;;;;;;;;;28.32;27.29;98441.41;7376956;19;19971;-68
2023/07/06 10:52:32;;;;;;;;;;;;;;;28.33;27.71;98434.06;7378225;19;19921;-70
2023/07/06 10:54:59;;;;;;;;;;;;;;;27.34;27.58;98432.06;7375203;19;19923;-69
2023/07/06 10:57:33;;;;;;;;;;;;;;;27.09;30.58;98442.75;7375024;19;19919;-69
2023/07/06 11:00:05;;;;;;;;;;;;;;;26.93;29.36;98437.22;7373236;19;19927;-69
2023/07/06 11:02:38;;;;;;;;;;;;;;;26.71;30.99;98440.03;7381052;19;20603;-69
2023/07/06 11:05:07;;;;;;;;;;;;;;;26.62;30.51;98438.88;7373109;19;19986;-69
2023/07/06 11:07:39;;;;;;;;;;;;;;;26.47;30.12;98444.16;7372743;19;19922;-70
2023/07/06 11:10:12;;;;;;;;;;;;;;;26.46;30.91;98437.06;7377905;19;19922;-69
2023/07/06 11:12:54;;;;;;;;;;;;;;;27.05;29.29;98437.03;7378027;19;20259;-69
2023/07/06 11:15:38;;;;;;;;;;;;;;;27.09;30.00;98440.03;7373354;19;20303;-69
2023/07/06 11:18:05;;;;;;;;;;;;;;;27.27;27.44;98441.53;7379868;19;19919;-70
2023/07/06 11:20:32;;;;;;;;;;;;;;;27.10;28.57;98442.50;7378183;19;19918;-69
2023/07/06 11:23:00;;;;;;;;;;;;;;;27.18;28.54;98434.97;7374785;19;19919;-68
2023/07/06 11:25:29;;;;;;;;;;;;;;;27.35;27.62;98430.16;7381645;19;19921;-69
2023/07/06 11:27:59;;;;;;;;;;;;;;;27.70;27.14;98423.25;7376713;19;19926;-69
2023/07/06 11:30:31;;;;;;;;;;;;;;;27.76;27.05;98427.66;7373957;19;19919;-69
2023/07/06 11:33:06;;;;;;;;;;;;;;;27.48;27.45;98432.41;7368251;19;19925;-69
2023/07/06 11:35:33;;;;;;;;;;;;;;;27.59;29.04;98430.56;7374440;19;19931;-69
2023/07/06 11:38:18;;;;;;;;;;;;;;;27.02;29.73;98428.59;7374671;19;19930;-70
2023/07/06 11:41:05;;;;;;;;;;;;;;;26.41;28.70;98423.44;7375354;19;19923;-68
2023/07/06 11:44:05;;;;;;;;;;;;;;;26.33;28.81;98426.63;7373609;19;19925;-69
2023/07/06 11:46:45;;;;;;;;;;;;;;;26.45;30.20;98424.59;7369860;19;20363;-69
2023/07/06 11:49:17;;;;;;;;;;;;;;;26.73;28.14;98417.25;7370625;19;20329;-69
2023/07/06 11:51:45;;;;;;;;;;;;;;;26.92;31.02;98416.56;7376019;19;19941;-69
2023/07/06 11:54:29;;;;;;;;;;;;;;;27.10;29.45;98419.97;7380557;19;19922;-73
2023/07/06 11:57:24;;;;;;;;;;;;;;;27.01;28.10;98416.09;7373759;19;20290;-71
2023/07/06 12:00:09;;;;;;;;;;;;;;;26.66;27.90;98417.47;7374413;19;20380;-69
2023/07/06 12:02:48;;;;;;;;;;;;;;;26.40;28.54;98417.22;7374480;19;19944;-69
2023/07/06 12:05:35;;;;;;;;;;;;;;;26.18;27.67;98409.16;7368806;19;19919;-70
2023/07/06 12:08:03;;;;;;;;;;;;;;;26.10;29.78;98411.50;7371547;19;19929;-71
2023/07/06 12:10:30;;;;;;;;;;;;;;;26.30;28.74;98405.47;7377873;19;19915;-69
2023/07/06 12:12:57;;;;;;;;;;;;;;;26.26;30.10;98408.69;7369800;19;19925;-69
2023/07/06 12:15:24;;;;;;;;;;;;;;;26.45;29.86;98421.88;7375414;19;20463;-69
2023/07/06 12:17:55;;;;;;;;;;;;;;;26.47;29.02;98412.41;7370452;19;20592;-70
2023/07/06 12:20:25;;;;;;;;;;;;;;;27.00;27.54;98409.03;7369993;19;20079;-70
2023/07/06 12:22:52;;;;;;;;;;;;;;;26.83;27.49;98401.03;7367890;19;19919;-70
2023/07/06 12:25:19;;;;;;;;;;;;;;;27.50;28.50;98392.22;7373482;19;19937;-71
2023/07/06 12:27:46;;;;;;;;;;;;;;;27.48;28.02;98388.94;7372280;19;20605;-72
2023/07/06 12:30:14;;;;;;;;;;;;;;;27.92;27.58;98393.19;7369932;19;19914;-69
2023/07/06 12:32:44;;;;;;;;;;;;;;;27.83;26.76;98395.59;7368600;19;19929;-69
2023/07/06 12:35:11;;;;;;;;;;;;;;;27.94;28.48;98394.56;7365725;19;19918;-69
2023/07/06 12:37:41;;;;;;;;;;;;;;;27.80;29.81;98387.97;7368981;19;19950;-69
2023/07/06 12:40:17;;;;;;;;;;;;;;;27.67;28.03;98386.56;7368005;19;19941;-69
2023/07/06 12:42:44;;;;;;;;;;;;;;;28.26;27.91;98384.56;7373531;19;19927;-69
2023/07/06 12:45:11;;;;;;;;;;;;;;;28.36;27.30;98381.84;7370431;19;19918;-69
2023/07/06 12:47:40;;;;;;;;;;;;;;;27.94;28.50;98372.00;7386006;19;19915;-69
2023/07/06 12:50:16;;;;;;;;;;;;;;;28.16;26.89;98372.56;7384124;19;19918;-71
2023/07/06 12:52:43;;;;;;;;;;;;;;;28.31;26.76;98382.66;7388005;19;19911;-68
2023/07/06 12:55:15;;;;;;;;;;;;;;;28.43;26.92;98383.22;7379982;19;20704;-70
2023/07/06 12:57:46;;;;;;;;;;;;;;;28.32;25.97;98376.13;7385404;19;20340;-69
2023/07/06 13:00:17;;;;;;;;;;;;;;;28.27;27.13;98384.28;7380784;19;19925;-69